createdAt,value
2023-04-24T00:01:27.886Z,3.47
2023-04-24T00:06:35.937Z,3.67
2023-04-24T00:11:41.426Z,3.30
2023-04-24T00:16:46.970Z,4.00
2023-04-24T00:21:53.453Z,3.50
2023-04-24T00:26:58.948Z,3.10
2023-04-24T00:32:05.036Z,3.63
2023-04-24T00:37:12.661Z,3.10
2023-04-24T00:42:18.170Z,3.77
2023-04-24T00:47:24.378Z,3.83
2023-04-24T00:52:31.622Z,4.03
2023-04-24T00:57:37.173Z,3.80
2023-04-24T01:02:45.407Z,3.83
2023-04-24T01:07:51.394Z,3.73
2023-04-24T01:12:57.607Z,3.47
2023-04-24T01:18:03.524Z,3.87
2023-04-24T01:23:10.651Z,3.53
2023-04-24T01:28:16.482Z,4.23
2023-04-24T01:33:23.655Z,3.70
2023-04-24T01:38:29.410Z,3.63
2023-04-24T01:43:35.032Z,3.70
2023-04-24T01:48:40.590Z,4.47
2023-04-24T01:53:46.173Z,4.57
2023-04-24T01:58:53.894Z,4.27
2023-04-24T02:03:59.467Z,4.20
2023-04-24T02:09:05.399Z,4.60
2023-04-24T02:14:11.128Z,4.37
2023-04-24T02:19:18.325Z,4.33
2023-04-24T02:24:23.885Z,4.30
2023-04-24T02:29:29.388Z,4.90
2023-04-24T02:34:34.932Z,4.77
2023-04-24T02:39:40.483Z,6.00
2023-04-24T02:44:46.158Z,6.00
2023-04-24T02:49:51.601Z,6.03
2023-04-24T02:54:57.000Z,5.30
2023-04-24T03:00:02.583Z,6.03
2023-04-24T03:05:08.630Z,4.80
2023-04-24T03:10:14.173Z,5.33
2023-04-24T03:15:20.301Z,5.07
2023-04-24T03:20:26.848Z,4.93
2023-04-24T03:25:33.214Z,4.67
2023-04-24T03:30:39.447Z,4.37
2023-04-24T03:35:46.110Z,4.67
2023-04-24T03:40:51.714Z,4.80
2023-04-24T03:46:01.791Z,4.63
2023-04-24T03:51:09.034Z,5.40
2023-04-24T03:56:16.030Z,6.00
2023-04-24T04:01:21.894Z,6.03
2023-04-24T04:06:29.742Z,6.40
2023-04-24T04:11:36.939Z,6.87
2023-04-24T04:16:43.312Z,6.93
2023-04-24T04:21:50.758Z,6.87
2023-04-24T04:26:59.290Z,7.80
2023-04-24T04:32:09.512Z,8.10
2023-04-24T04:37:15.597Z,8.00
2023-04-24T04:42:29.418Z,7.77
2023-04-24T04:47:35.213Z,8.47
2023-04-24T04:52:41.327Z,8.17
2023-04-24T04:57:49.002Z,8.00
2023-04-24T05:02:56.334Z,7.40
2023-04-24T05:08:02.046Z,7.40
2023-04-24T05:13:07.728Z,8.03
2023-04-24T05:18:14.258Z,7.73
2023-04-24T05:23:19.997Z,8.43
2023-04-24T05:28:28.921Z,7.17
2023-04-24T05:33:36.174Z,7.20
2023-04-24T05:38:42.273Z,7.07
2023-04-24T05:43:47.973Z,6.40
2023-04-24T05:48:53.557Z,6.53
2023-04-24T05:53:59.194Z,6.63
2023-04-24T05:59:04.777Z,5.80
2023-04-24T06:04:10.545Z,6.33
2023-04-24T06:09:17.992Z,6.37
2023-04-24T06:14:23.752Z,6.10
2023-04-24T06:19:43.594Z,6.97
2023-04-24T06:24:49.747Z,5.87
2023-04-24T06:29:56.508Z,5.60
2023-04-24T06:35:02.324Z,6.10
2023-04-24T06:40:08.933Z,7.03
2023-04-24T06:45:14.426Z,6.30
2023-04-24T06:50:20.042Z,6.33
2023-04-24T06:55:25.707Z,7.27
2023-04-24T07:00:31.369Z,5.47
2023-04-24T07:05:38.194Z,5.40
2023-04-24T07:10:43.879Z,4.90
2023-04-24T07:15:51.309Z,4.63
2023-04-24T07:20:57.517Z,5.30
2023-04-24T07:26:03.453Z,4.50
2023-04-24T07:31:10.462Z,5.23
2023-04-24T07:36:20.102Z,4.90
2023-04-24T07:41:26.307Z,4.70
2023-04-24T07:46:32.986Z,4.17
2023-04-24T07:51:39.526Z,3.57
2023-04-24T07:56:46.223Z,4.10
2023-04-24T08:01:51.931Z,3.93
2023-04-24T08:06:57.487Z,3.67
2023-04-24T08:12:03.670Z,3.60
2023-04-24T08:17:09.249Z,4.17
2023-04-24T08:22:14.898Z,2.83
2023-04-24T08:27:20.412Z,2.90
2023-04-24T08:32:26.368Z,2.80
2023-04-24T08:37:32.063Z,3.00
2023-04-24T08:42:39.308Z,4.07
2023-04-24T08:47:46.390Z,3.60
2023-04-24T08:52:55.279Z,3.60
2023-04-24T08:58:03.220Z,3.27
2023-04-24T09:03:09.082Z,2.53
2023-04-24T09:08:16.417Z,3.57
2023-04-24T09:13:23.068Z,3.27
2023-04-24T09:18:28.981Z,3.83
2023-04-24T09:23:35.167Z,4.17
2023-04-24T09:28:42.234Z,4.50
2023-04-24T09:34:08.281Z,3.80
2023-04-24T09:39:20.906Z,4.93
2023-04-24T09:44:29.041Z,2.97
2023-04-24T09:49:36.154Z,3.20
2023-04-24T09:54:42.512Z,3.00
2023-04-24T09:59:48.958Z,3.50
2023-04-24T10:05:01.079Z,2.80
2023-04-24T10:10:08.558Z,3.10
2023-04-24T10:15:15.652Z,3.87
2023-04-24T10:20:27.429Z,2.97
2023-04-24T10:25:35.125Z,4.00
2023-04-24T10:30:43.327Z,3.90
2023-04-24T10:35:51.863Z,3.70
2023-04-24T10:41:19.280Z,4.40
2023-04-24T10:46:26.452Z,4.50
2023-04-24T10:51:49.819Z,4.60
2023-04-24T10:56:58.263Z,5.33
2023-04-24T11:02:03.687Z,4.47
2023-04-24T11:07:10.895Z,4.40
2023-04-24T11:12:16.385Z,3.83
2023-04-24T11:17:38.656Z,3.97
2023-04-24T11:22:44.398Z,3.23
2023-04-24T11:27:51.075Z,2.40
2023-04-24T11:32:56.861Z,2.10
2023-04-24T11:38:22.773Z,1.93
2023-04-24T11:43:12.453Z,1.57
2023-04-24T11:48:23.448Z,1.50
2023-04-24T11:53:29.601Z,1.50
2023-04-24T11:58:40.312Z,2.10
2023-04-24T12:03:52.591Z,1.60
2023-04-24T12:09:04.975Z,2.00
2023-04-24T12:14:14.179Z,2.00
2023-04-24T12:19:26.414Z,1.60
2023-04-24T12:24:32.629Z,1.10
2023-04-24T12:29:38.270Z,1.10
2023-04-24T12:34:45.612Z,1.00
2023-04-24T12:40:09.451Z,1.10
2023-04-24T12:45:16.196Z,1.40
2023-04-24T12:50:21.887Z,1.53
2023-04-24T12:55:28.626Z,1.10
2023-04-24T13:00:35.008Z,1.60
2023-04-24T13:05:40.879Z,1.33
2023-04-24T13:10:46.745Z,0.83
2023-04-24T13:16:19.045Z,1.07
2023-04-24T13:21:24.635Z,0.70
2023-04-24T13:26:30.086Z,0.70
2023-04-24T13:31:35.870Z,0.60
2023-04-24T13:36:42.001Z,0.50
2023-04-24T13:41:49.279Z,0.60
2023-04-24T13:46:57.987Z,0.43
2023-04-24T13:52:04.545Z,0.67
2023-04-24T13:57:10.047Z,0.87
2023-04-24T14:02:15.912Z,0.53
2023-04-24T14:07:21.831Z,0.50
2023-04-24T14:12:28.167Z,0.50
2023-04-24T14:17:33.780Z,0.70
2023-04-24T14:22:39.237Z,0.97
2023-04-24T14:27:44.879Z,0.80
2023-04-24T14:32:51.188Z,0.80
2023-04-24T14:37:57.225Z,0.60
2023-04-24T14:43:02.800Z,0.80
2023-04-24T14:48:09.231Z,0.73
2023-04-24T14:53:15.290Z,0.70
2023-04-24T14:58:20.888Z,0.50
2023-04-24T15:03:28.246Z,0.80
2023-04-24T15:08:34.072Z,1.00
2023-04-24T15:13:40.976Z,0.90
2023-04-24T15:18:46.569Z,0.80
2023-04-24T15:23:52.166Z,1.00
2023-04-24T15:28:57.713Z,1.00
2023-04-24T15:34:03.754Z,0.77
2023-04-24T15:39:11.022Z,0.60
2023-04-24T15:44:16.467Z,0.67
2023-04-24T15:49:22.211Z,0.60
2023-04-24T15:54:27.730Z,0.40
2023-04-24T15:59:34.464Z,0.60
2023-04-24T16:04:40.097Z,0.57
2023-04-24T16:09:46.117Z,0.90
2023-04-24T16:14:51.795Z,0.60
2023-04-24T16:19:57.242Z,0.70
2023-04-24T16:25:03.043Z,0.70
2023-04-24T16:30:09.878Z,1.00
2023-04-24T16:35:15.384Z,0.80
2023-04-24T16:40:21.084Z,1.00
2023-04-24T16:45:26.703Z,1.00
2023-04-24T16:50:32.312Z,0.90
2023-04-24T16:55:37.748Z,0.90
2023-04-24T17:00:43.464Z,1.20
2023-04-24T17:05:49.012Z,1.30
2023-04-24T17:10:54.586Z,1.00
2023-04-24T17:16:00.204Z,0.93
2023-04-24T17:21:05.835Z,1.57
2023-04-24T17:26:12.643Z,1.00
2023-04-24T17:31:18.261Z,1.27
2023-04-24T17:36:23.835Z,1.10
2023-04-24T17:41:29.331Z,0.90
2023-04-24T17:46:35.654Z,1.03
2023-04-24T17:51:41.438Z,1.40
2023-04-24T17:56:47.444Z,1.20
2023-04-24T18:01:53.604Z,1.40
2023-04-24T18:06:59.280Z,1.27
2023-04-24T18:12:05.590Z,4.90
2023-04-24T18:17:11.583Z,1.70
2023-04-24T18:22:17.151Z,1.23
2023-04-24T18:27:24.333Z,1.47
2023-04-24T18:32:30.220Z,1.20
2023-04-24T18:37:35.849Z,1.30
2023-04-24T18:42:41.704Z,1.33
2023-04-24T18:47:47.320Z,1.33
2023-04-24T18:52:53.058Z,1.50
2023-04-24T18:57:58.503Z,1.77
2023-04-24T19:03:04.339Z,1.77
2023-04-24T19:08:10.201Z,1.63
2023-04-24T19:13:16.159Z,1.63
2023-04-24T19:18:21.679Z,1.20
2023-04-24T19:23:30.659Z,1.43
2023-04-24T19:28:37.894Z,1.30
2023-04-24T19:33:43.489Z,1.27
2023-04-24T19:38:51.055Z,2.13
2023-04-24T19:43:56.800Z,1.27
2023-04-24T19:49:02.384Z,1.03
2023-04-24T19:54:07.879Z,1.90
2023-04-24T19:59:13.312Z,1.70
2023-04-24T20:04:20.474Z,1.33
2023-04-24T20:09:26.052Z,1.60
2023-04-24T20:14:31.805Z,1.47
2023-04-24T20:19:37.884Z,1.50
2023-04-24T20:24:44.032Z,1.90
2023-04-24T20:29:49.536Z,1.47
2023-04-24T20:34:55.372Z,1.83
2023-04-24T20:40:02.461Z,1.30
2023-04-24T20:45:09.048Z,0.90
2023-04-24T20:50:14.566Z,0.90
2023-04-24T20:55:20.111Z,0.87
2023-04-24T21:00:27.238Z,0.67
2023-04-24T21:05:33.620Z,0.70
2023-04-24T21:10:39.061Z,0.50
2023-04-24T21:15:44.676Z,0.50
2023-04-24T21:20:51.860Z,0.60
2023-04-24T21:25:58.604Z,0.40
2023-04-24T21:31:04.613Z,0.30
2023-04-24T21:36:10.807Z,0.50
2023-04-24T21:41:16.370Z,0.30
2023-04-24T21:46:21.976Z,0.60
2023-04-24T21:51:28.518Z,0.50
2023-04-24T21:56:34.527Z,0.30
2023-04-24T22:01:40.247Z,0.47
2023-04-24T22:06:45.861Z,0.40
2023-04-24T22:11:51.710Z,0.40
2023-04-24T22:16:57.925Z,0.40
2023-04-24T22:22:03.583Z,0.50
2023-04-24T22:27:09.118Z,0.47
2023-04-24T22:32:14.610Z,0.60
2023-04-24T22:37:20.035Z,0.50
2023-04-24T22:42:26.153Z,1.00
2023-04-24T22:47:32.124Z,0.70
2023-04-24T22:52:38.269Z,0.90
2023-04-24T22:57:44.238Z,0.90
2023-04-24T23:02:50.069Z,0.90
2023-04-24T23:07:55.836Z,0.90
2023-04-24T23:13:01.310Z,0.60
2023-04-24T23:18:07.023Z,1.00
2023-04-24T23:23:12.869Z,1.20
2023-04-24T23:28:19.363Z,1.00
2023-04-24T23:33:24.848Z,0.80
2023-04-24T23:38:39.606Z,1.00
2023-04-24T23:43:38.781Z,1.10
2023-04-24T23:48:44.285Z,1.07
2023-04-24T23:53:50.217Z,1.17
2023-04-24T23:58:56.328Z,1.40
